createdAt,value
2022-12-06T00:01:29.246Z,97760.81
2022-12-06T00:03:58.376Z,97761.00
2022-12-06T00:06:27.791Z,97752.44
2022-12-06T00:08:55.774Z,97748.69
2022-12-06T00:11:25.907Z,97769.31
2022-12-06T00:13:55.007Z,97762.75
2022-12-06T00:16:22.552Z,97761.28
2022-12-06T00:27:27.100Z,97664.06
2022-12-06T00:29:54.043Z,97728.19
2022-12-06T00:32:20.924Z,97734.63
2022-12-06T00:34:47.794Z,97724.38
2022-12-06T00:37:14.684Z,97725.91
2022-12-06T00:39:42.405Z,97724.63
2022-12-06T00:42:09.233Z,97709.97
2022-12-06T00:53:27.248Z,97705.13
2022-12-06T00:55:55.449Z,97723.22
2022-12-06T01:09:30.963Z,97727.41
2022-12-06T01:11:58.729Z,97690.28
2022-12-06T01:14:25.723Z,97718.34
2022-12-06T01:16:52.805Z,97714.66
2022-12-06T01:19:19.805Z,97702.47
2022-12-06T01:21:48.757Z,97704.00
2022-12-06T01:24:15.670Z,97708.91
2022-12-06T01:26:42.500Z,97703.16
2022-12-06T01:29:09.944Z,97703.66
2022-12-06T01:31:39.080Z,97701.84
2022-12-06T01:34:13.527Z,97694.50
2022-12-06T01:36:40.426Z,97691.38
2022-12-06T01:39:10.642Z,97686.81
2022-12-06T01:41:38.889Z,97696.53
2022-12-06T01:44:06.792Z,97688.69
2022-12-06T01:46:39.167Z,97648.81
2022-12-06T01:49:08.594Z,97690.34
2022-12-06T01:51:36.679Z,97689.00
2022-12-06T01:54:07.930Z,97662.25
2022-12-06T01:56:35.025Z,97682.19
2022-12-06T01:59:02.160Z,97671.16
2022-12-06T02:01:30.269Z,97672.91
2022-12-06T02:04:00.450Z,97664.56
2022-12-06T02:06:29.975Z,97662.75
2022-12-06T02:09:02.136Z,97654.47
2022-12-06T02:11:34.801Z,97663.78
2022-12-06T02:14:04.379Z,97669.53
2022-12-06T02:16:54.137Z,97662.19
2022-12-06T02:19:48.652Z,97651.84
2022-12-06T02:22:19.968Z,97654.00
2022-12-06T02:25:21.541Z,97658.47
2022-12-06T02:28:08.794Z,97657.19
2022-12-06T02:30:41.469Z,97655.16
2022-12-06T02:33:15.844Z,97648.81
2022-12-06T02:35:55.221Z,97654.81
2022-12-06T02:38:35.271Z,97652.78
2022-12-06T02:41:11.107Z,97643.66
2022-12-06T02:43:42.769Z,97634.91
2022-12-06T02:46:13.534Z,97662.75
2022-12-06T02:48:43.032Z,97663.75
2022-12-06T02:51:15.207Z,97650.00
2022-12-06T02:53:47.622Z,97650.13
2022-12-06T02:56:17.238Z,97637.22
2022-12-06T02:58:44.281Z,97626.19
2022-12-06T03:01:32.422Z,97658.28
2022-12-06T03:04:12.500Z,97668.44
2022-12-06T03:06:58.231Z,97670.06
2022-12-06T03:09:43.317Z,97655.22
2022-12-06T03:12:27.935Z,97668.66
2022-12-06T03:15:07.052Z,97664.78
2022-12-06T03:18:03.221Z,97657.69
2022-12-06T03:20:43.153Z,97655.72
2022-12-06T03:23:15.432Z,97665.59
2022-12-06T03:25:45.466Z,97640.81
2022-12-06T03:28:15.813Z,97656.19
2022-12-06T03:30:47.988Z,97648.00
2022-12-06T03:33:17.040Z,97666.69
2022-12-06T03:35:47.379Z,97649.31
2022-12-06T03:38:22.016Z,97657.75
2022-12-06T03:40:52.735Z,97656.78
2022-12-06T03:43:20.187Z,97657.09
2022-12-06T03:46:01.050Z,97658.41
2022-12-06T03:48:36.006Z,97654.16
2022-12-06T03:51:07.449Z,97653.72
2022-12-06T03:53:34.419Z,97646.19
2022-12-06T03:56:01.375Z,97657.75
2022-12-06T03:58:28.356Z,97657.53
2022-12-06T04:00:55.245Z,97649.84
2022-12-06T04:03:22.137Z,97648.88
2022-12-06T04:05:49.024Z,97651.44
2022-12-06T04:08:15.972Z,97652.22
2022-12-06T04:10:42.891Z,97647.28
2022-12-06T04:13:09.734Z,97653.06
2022-12-06T04:15:39.139Z,97618.47
2022-12-06T04:18:16.350Z,97649.84
2022-12-06T04:21:18.012Z,97651.34
2022-12-06T04:23:47.419Z,97658.28
2022-12-06T04:26:18.017Z,97656.59
2022-12-06T04:29:03.575Z,97652.38
2022-12-06T04:31:48.966Z,97650.38
2022-12-06T04:34:35.148Z,97642.66
2022-12-06T04:37:20.344Z,97652.97
2022-12-06T04:39:47.410Z,97652.31
2022-12-06T04:42:33.062Z,97656.25
2022-12-06T04:45:00.288Z,97644.56
2022-12-06T04:47:27.101Z,97634.00
2022-12-06T04:49:53.936Z,97652.59
2022-12-06T04:52:20.871Z,97653.00
2022-12-06T04:54:47.713Z,97647.84
2022-12-06T04:57:16.769Z,97651.28
2022-12-06T04:59:45.544Z,97642.75
2022-12-06T05:02:15.339Z,97633.69
2022-12-06T05:04:42.669Z,97635.53
2022-12-06T05:07:11.728Z,97648.75
2022-12-06T05:09:39.414Z,97633.88
2022-12-06T05:12:06.682Z,97626.25
2022-12-06T05:14:33.718Z,97649.25
2022-12-06T05:17:00.745Z,97638.81
2022-12-06T05:19:27.936Z,97656.44
2022-12-06T05:21:54.851Z,97653.13
2022-12-06T05:24:21.806Z,97647.22
2022-12-06T05:26:48.664Z,97618.34
2022-12-06T05:29:15.564Z,97640.97
2022-12-06T05:31:42.472Z,97650.22
2022-12-06T05:34:10.143Z,97627.97
2022-12-06T05:36:36.985Z,97632.66
2022-12-06T05:39:04.292Z,97641.09
2022-12-06T05:41:31.242Z,97633.47
2022-12-06T05:43:58.144Z,97638.63
2022-12-06T05:46:25.054Z,97636.09
2022-12-06T05:48:52.019Z,97607.13
2022-12-06T05:51:22.145Z,97635.41
2022-12-06T05:53:49.159Z,97636.50
2022-12-06T05:56:16.059Z,97636.31
2022-12-06T05:58:43.016Z,97635.34
2022-12-06T06:01:10.289Z,97623.38
2022-12-06T06:03:41.050Z,97642.59
2022-12-06T06:06:12.831Z,97649.84
2022-12-06T06:08:39.778Z,97647.75
2022-12-06T06:11:06.666Z,97650.88
2022-12-06T06:13:33.529Z,97661.97
2022-12-06T06:16:00.564Z,97658.59
2022-12-06T06:18:27.423Z,97657.03
2022-12-06T06:20:58.258Z,97660.31
2022-12-06T06:23:26.259Z,97642.16
2022-12-06T06:25:54.183Z,97646.50
2022-12-06T06:28:21.815Z,97654.91
2022-12-06T06:30:48.972Z,97643.03
2022-12-06T06:33:16.373Z,97647.84
2022-12-06T06:35:43.573Z,97620.84
2022-12-06T06:38:10.469Z,97643.44
2022-12-06T06:40:37.352Z,97640.81
2022-12-06T06:43:24.427Z,97657.03
2022-12-06T06:45:56.021Z,97656.03
2022-12-06T06:48:24.166Z,97644.00
2022-12-06T06:50:56.712Z,97648.47
2022-12-06T06:53:27.882Z,97654.28
2022-12-06T06:55:55.182Z,97653.81
2022-12-06T08:32:30.591Z,97637.75
2022-12-06T08:34:57.521Z,97614.81
2022-12-06T08:44:26.985Z,97597.53
2022-12-06T08:46:55.265Z,97602.63
2022-12-06T08:49:24.341Z,97589.91
2022-12-06T08:51:52.023Z,97597.66
2022-12-06T08:54:24.573Z,97601.03
2022-12-06T08:56:52.214Z,97590.56
2022-12-06T08:59:20.136Z,97589.72
2022-12-06T09:01:47.961Z,97593.75
2022-12-06T09:04:15.806Z,97587.50
2022-12-06T09:06:44.138Z,97584.00
2022-12-06T09:09:12.839Z,97585.91
2022-12-06T09:11:40.526Z,97584.34
2022-12-06T09:14:09.314Z,97571.88
2022-12-06T09:16:36.743Z,97561.75
2022-12-06T09:19:04.276Z,97556.88
2022-12-06T09:21:31.871Z,97540.41
2022-12-06T09:24:01.035Z,97552.00
2022-12-06T09:26:28.362Z,97550.53
2022-12-06T09:28:56.883Z,97536.09
2022-12-06T09:31:25.349Z,97550.06
2022-12-06T09:33:52.577Z,97501.81
2022-12-06T09:36:31.090Z,97526.22
2022-12-06T09:39:06.056Z,97529.69
2022-12-06T09:41:59.539Z,97527.38
2022-12-06T09:44:45.847Z,97530.69
2022-12-06T09:47:34.514Z,97522.88
2022-12-06T09:50:32.485Z,97523.31
2022-12-06T09:53:20.389Z,97517.28
2022-12-06T09:56:18.147Z,97515.53
2022-12-06T09:59:11.436Z,97512.41
2022-12-06T10:01:50.528Z,97506.66
2022-12-06T10:04:37.690Z,97499.22
2022-12-06T10:07:19.940Z,97492.34
2022-12-06T10:10:13.975Z,97505.28
2022-12-06T10:13:34.998Z,97487.81
2022-12-06T10:16:16.116Z,97492.69
2022-12-06T10:18:49.139Z,97481.63
2022-12-06T10:21:41.441Z,97470.81
2022-12-06T10:24:17.365Z,97482.34
2022-12-06T10:26:55.856Z,97475.88
2022-12-06T10:29:33.842Z,97459.84
2022-12-06T10:32:12.570Z,97463.22
2022-12-06T10:36:38.807Z,97472.34
2022-12-06T10:37:43.929Z,97468.41
2022-12-06T10:40:29.189Z,97451.84
2022-12-06T10:43:03.670Z,97473.81
2022-12-06T10:46:13.839Z,97469.34
2022-12-06T10:48:54.263Z,97448.16
2022-12-06T10:51:32.251Z,97440.31
2022-12-06T10:54:08.027Z,97454.03
2022-12-06T10:56:40.979Z,97446.56
2022-12-06T10:59:39.332Z,97449.72
2022-12-06T11:02:35.721Z,97447.34
2022-12-06T11:05:14.301Z,97422.09
2022-12-06T11:07:48.286Z,97423.28
2022-12-06T11:10:35.510Z,97440.03
2022-12-06T11:13:09.949Z,97416.81
2022-12-06T11:15:41.171Z,97420.38
2022-12-06T11:18:13.872Z,97412.06
2022-12-06T11:20:49.211Z,97401.19
2022-12-06T11:23:34.138Z,97409.09
2022-12-06T11:26:11.483Z,97408.16
2022-12-06T11:28:44.260Z,97384.69
2022-12-06T11:31:23.552Z,97390.47
2022-12-06T11:33:50.566Z,97403.09
2022-12-06T11:36:17.584Z,97397.03
2022-12-06T11:38:45.343Z,97375.94
2022-12-06T11:41:21.090Z,97388.63
2022-12-06T11:43:48.665Z,97368.63
2022-12-06T11:46:15.927Z,97383.13
2022-12-06T11:48:43.555Z,97387.97
2022-12-06T11:51:25.259Z,97361.09
2022-12-06T11:54:00.815Z,97381.47
2022-12-06T11:56:30.961Z,97372.25
2022-12-06T11:59:27.062Z,97380.69
2022-12-06T12:02:00.814Z,97376.69
2022-12-06T12:04:37.022Z,97371.31
2022-12-06T12:07:06.927Z,97371.75
2022-12-06T12:09:44.434Z,97358.59
2022-12-06T12:12:23.505Z,97368.84
2022-12-06T12:14:58.436Z,97367.88
2022-12-06T12:17:31.465Z,97352.31
2022-12-06T12:20:05.349Z,97366.81
2022-12-06T12:22:39.136Z,97336.16
2022-12-06T12:25:28.348Z,97351.63
2022-12-06T12:28:00.370Z,97342.19
2022-12-06T12:30:40.646Z,97336.41
2022-12-06T12:33:07.451Z,97339.72
2022-12-06T12:35:52.350Z,97319.44
2022-12-06T12:38:25.554Z,97326.28
2022-12-06T12:40:58.179Z,97330.31
2022-12-06T12:43:33.384Z,97318.91
2022-12-06T12:46:12.277Z,97342.66
2022-12-06T12:48:41.860Z,97346.34
2022-12-06T12:51:28.362Z,97337.72
2022-12-06T12:54:01.485Z,97339.94
2022-12-06T12:56:32.917Z,97340.19
2022-12-06T12:59:02.666Z,97313.53
2022-12-06T13:01:54.389Z,97340.94
2022-12-06T13:04:36.779Z,97333.88
2022-12-06T13:07:06.286Z,97330.97
2022-12-06T13:09:38.672Z,97319.72
2022-12-06T13:12:12.935Z,97328.72
2022-12-06T13:14:45.475Z,97324.66
2022-12-06T13:17:13.694Z,97342.25
2022-12-06T13:19:51.668Z,97343.88
2022-12-06T13:22:27.021Z,97341.28
2022-12-06T13:25:03.536Z,97336.03
2022-12-06T13:27:40.261Z,97342.59
2022-12-06T13:30:17.438Z,97337.25
2022-12-06T13:32:55.124Z,97305.75
2022-12-06T13:35:31.211Z,97331.53
2022-12-06T13:38:01.615Z,97326.00
2022-12-06T13:40:39.183Z,97317.75
2022-12-06T13:43:26.183Z,97319.38
2022-12-06T13:46:30.046Z,97317.69
2022-12-06T13:49:01.116Z,97322.44
2022-12-06T13:51:30.955Z,97317.06
2022-12-06T13:54:03.890Z,97320.69
2022-12-06T13:56:33.509Z,97313.69
2022-12-06T13:59:03.094Z,97300.66
2022-12-06T14:01:36.925Z,97308.09
2022-12-06T14:07:00.177Z,97315.94
2022-12-06T14:09:35.897Z,97292.75
2022-12-06T14:12:16.521Z,97299.41
2022-12-06T14:14:43.937Z,97268.25
2022-12-06T14:17:32.383Z,97296.00
2022-12-06T14:20:22.247Z,97313.63
2022-12-06T14:22:49.735Z,97304.78
2022-12-06T14:25:17.079Z,97310.94
2022-12-06T14:27:48.787Z,97290.72
2022-12-06T14:30:26.201Z,97309.38
2022-12-06T14:32:56.174Z,97309.38
2022-12-06T14:35:24.602Z,97307.41
2022-12-06T14:38:03.502Z,97306.72
2022-12-06T14:41:12.116Z,97315.25
2022-12-06T14:43:40.769Z,97301.31
2022-12-06T14:46:12.502Z,97313.09
2022-12-06T14:49:01.466Z,97292.78
2022-12-06T14:54:38.436Z,97316.06
2022-12-06T14:57:38.965Z,97306.28
2022-12-06T15:00:18.277Z,97295.22
2022-12-06T15:03:05.895Z,97316.88
2022-12-06T15:05:41.572Z,97314.03
2022-12-06T15:15:43.852Z,97322.59
2022-12-06T15:18:24.357Z,97320.31
2022-12-06T15:20:53.409Z,97310.69
2022-12-06T15:23:26.062Z,97315.97
2022-12-06T15:25:53.039Z,97314.28
2022-12-06T15:28:20.167Z,97301.06
2022-12-06T15:30:48.068Z,97270.50
2022-12-06T15:33:24.295Z,97314.91
2022-12-06T15:35:52.025Z,97317.53
2022-12-06T15:38:19.319Z,97325.03
2022-12-06T15:40:49.544Z,97293.69
2022-12-06T15:43:26.823Z,97323.34
2022-12-06T15:45:54.343Z,97313.38
2022-12-06T15:48:21.493Z,97317.53
2022-12-06T15:50:48.475Z,97318.63
2022-12-06T15:53:17.351Z,97314.78
2022-12-06T15:55:44.428Z,97310.94
2022-12-06T15:58:11.490Z,97308.41
2022-12-06T16:00:38.483Z,97306.25
2022-12-06T16:03:05.525Z,97304.13
2022-12-06T16:05:32.438Z,97300.84
2022-12-06T16:07:59.372Z,97306.94
2022-12-06T16:10:48.728Z,97300.31
2022-12-06T16:13:23.396Z,97303.97
2022-12-06T16:15:52.082Z,97304.03
2022-12-06T16:18:19.994Z,97315.81
2022-12-06T16:20:47.561Z,97294.13
2022-12-06T16:24:10.868Z,97296.03
2022-12-06T16:26:23.109Z,97304.16
2022-12-06T16:28:50.009Z,97277.66
2022-12-06T16:31:17.031Z,97283.41
2022-12-06T16:33:43.975Z,97300.59
2022-12-06T16:36:31.431Z,97292.38
2022-12-06T16:39:05.237Z,97308.84
2022-12-06T16:41:35.150Z,97298.09
2022-12-06T16:44:02.921Z,97284.31
2022-12-06T16:46:35.548Z,97294.13
2022-12-06T16:49:37.255Z,97283.81
2022-12-06T16:51:53.911Z,97300.56
2022-12-06T16:54:23.231Z,97308.16
2022-12-06T16:56:50.075Z,97306.22
2022-12-06T16:59:18.077Z,97306.75
2022-12-06T17:01:53.748Z,97294.00
2022-12-06T17:04:21.121Z,97294.22
2022-12-06T17:06:48.488Z,97304.53
2022-12-06T17:09:15.407Z,97304.66
2022-12-06T17:12:01.028Z,97302.31
2022-12-06T17:14:28.555Z,97299.38
2022-12-06T17:16:57.023Z,97291.13
2022-12-06T17:19:28.001Z,97260.59
2022-12-06T17:21:55.802Z,97260.91
2022-12-06T17:24:25.284Z,97297.22
2022-12-06T17:26:54.223Z,97295.00
2022-12-06T17:29:23.402Z,97284.31
2022-12-06T17:31:50.772Z,97303.56
2022-12-06T17:34:18.653Z,97304.34
2022-12-06T17:36:46.024Z,97296.81
2022-12-06T17:39:18.542Z,97313.78
2022-12-06T17:42:04.326Z,97304.75
2022-12-06T17:44:31.452Z,97307.22
2022-12-06T17:46:58.384Z,97305.31
2022-12-06T17:49:26.392Z,97310.31
2022-12-06T17:51:53.513Z,97270.53
2022-12-06T17:54:20.940Z,97306.78
2022-12-06T17:56:50.109Z,97306.47
2022-12-06T17:59:21.767Z,97282.22
2022-12-06T18:04:36.599Z,97292.84
2022-12-06T18:07:03.549Z,97287.69
2022-12-06T18:09:30.497Z,97275.16
2022-12-06T18:11:57.522Z,97281.53
2022-12-06T18:14:24.413Z,97281.91
2022-12-06T18:16:51.292Z,97282.78
2022-12-06T18:19:20.919Z,97281.03
2022-12-06T18:21:48.839Z,97283.69
2022-12-06T18:24:22.082Z,97287.72
2022-12-06T18:26:51.324Z,97286.91
2022-12-06T18:29:20.590Z,97285.09
2022-12-06T18:31:48.124Z,97277.13
2022-12-06T18:34:15.439Z,97286.13
2022-12-06T18:36:42.730Z,97277.59
2022-12-06T18:39:15.371Z,97279.47
2022-12-06T18:41:46.125Z,97277.59
2022-12-06T18:44:13.333Z,97275.94
2022-12-06T18:46:42.671Z,97271.03
2022-12-06T18:49:11.911Z,97274.28
2022-12-06T18:51:39.369Z,97271.16
2022-12-06T18:54:07.140Z,97266.06
2022-12-06T18:56:35.157Z,97251.41
2022-12-06T18:59:04.761Z,97267.50
2022-12-06T19:01:33.960Z,97258.91
2022-12-06T19:04:03.417Z,97265.13
2022-12-06T19:06:33.637Z,97260.75
2022-12-06T19:09:05.723Z,97256.38
2022-12-06T19:11:36.349Z,97252.00
2022-12-06T19:14:03.885Z,97244.94
2022-12-06T19:16:34.166Z,97238.28
2022-12-06T19:19:02.231Z,97253.13
2022-12-06T19:21:32.299Z,97240.44
2022-12-06T19:23:59.434Z,97237.97
2022-12-06T19:26:28.603Z,97234.69
2022-12-06T19:28:56.233Z,97199.56
2022-12-06T19:31:23.784Z,97238.13
2022-12-06T19:33:51.777Z,97218.06
2022-12-06T19:36:23.681Z,97230.59
2022-12-06T19:38:58.852Z,97230.72
2022-12-06T19:41:26.233Z,97219.25
2022-12-06T19:44:11.863Z,97208.50
2022-12-06T19:46:41.008Z,97217.03
2022-12-06T19:49:08.251Z,97218.84
2022-12-06T19:51:39.700Z,97227.44
2022-12-06T19:54:07.690Z,97230.78
2022-12-06T19:56:34.829Z,97225.56
2022-12-06T19:59:11.216Z,97223.81
2022-12-06T20:01:43.876Z,97219.66
2022-12-06T20:04:16.653Z,97203.03
2022-12-06T20:06:43.986Z,97217.13
2022-12-06T20:09:10.981Z,97216.06
2022-12-06T20:11:58.481Z,97217.91
2022-12-06T20:14:25.692Z,97213.50
2022-12-06T20:16:52.782Z,97214.84
2022-12-06T20:19:21.382Z,97216.06
2022-12-06T20:21:48.691Z,97217.34
2022-12-06T20:24:19.062Z,97215.72
2022-12-06T20:26:49.236Z,97212.84
2022-12-06T20:29:20.350Z,97217.34
2022-12-06T20:31:51.814Z,97207.91
2022-12-06T20:34:18.911Z,97214.16
2022-12-06T20:36:45.973Z,97213.91
2022-12-06T20:39:21.802Z,97205.47
2022-12-06T20:41:49.566Z,97212.56
2022-12-06T20:44:18.041Z,97198.50
2022-12-06T20:46:45.524Z,97200.06
2022-12-06T20:49:12.937Z,97221.28
2022-12-06T20:51:40.136Z,97219.97
2022-12-06T20:54:07.777Z,97228.34
2022-12-06T20:56:37.245Z,97218.00
2022-12-06T20:59:05.195Z,97205.63
2022-12-06T21:01:37.754Z,97219.97
2022-12-06T21:04:04.901Z,97210.31
2022-12-06T21:06:32.281Z,97215.72
2022-12-06T21:08:59.295Z,97208.31
2022-12-06T21:11:26.482Z,97221.66
2022-12-06T21:13:54.930Z,97224.03
2022-12-06T21:16:26.247Z,97219.00
2022-12-06T21:19:01.983Z,97211.41
2022-12-06T21:21:34.661Z,97210.63
2022-12-06T21:24:03.799Z,97211.41
2022-12-06T21:26:31.023Z,97197.97
2022-12-06T21:28:58.244Z,97195.38
2022-12-06T21:31:27.580Z,97188.41
2022-12-06T21:33:55.305Z,97198.41
2022-12-06T21:36:22.625Z,97176.03
2022-12-06T21:38:49.590Z,97195.91
2022-12-06T21:41:17.178Z,97194.81
2022-12-06T21:43:46.419Z,97172.88
2022-12-06T21:46:16.568Z,97192.53
2022-12-06T21:48:44.497Z,97173.69
2022-12-06T21:51:14.044Z,97157.00
2022-12-06T21:53:41.169Z,97168.59
2022-12-06T21:56:10.145Z,97189.81
2022-12-06T21:58:37.552Z,97171.81
2022-12-06T22:01:09.589Z,97179.34
2022-12-06T22:03:37.166Z,97161.03
2022-12-06T22:06:09.642Z,97169.25
2022-12-06T22:08:37.039Z,97148.59
2022-12-06T22:11:08.374Z,97170.00
2022-12-06T22:13:35.680Z,97171.66
2022-12-06T22:16:07.399Z,97161.47
2022-12-06T22:18:38.829Z,97168.81
2022-12-06T22:21:19.557Z,97167.22
2022-12-06T22:23:47.607Z,97165.81
2022-12-06T22:26:16.985Z,97164.97
2022-12-06T22:28:44.424Z,97160.47
2022-12-06T22:31:15.950Z,97155.19
2022-12-06T22:33:43.483Z,97157.78
2022-12-06T22:36:11.489Z,97144.75
2022-12-06T22:38:38.405Z,97153.22
2022-12-06T22:41:06.203Z,97143.94
2022-12-06T22:43:33.903Z,97109.53
2022-12-06T22:46:09.271Z,97131.63
2022-12-06T22:48:36.645Z,97149.28
2022-12-06T22:51:12.626Z,97146.69
2022-12-06T22:53:41.120Z,97150.06
2022-12-06T22:56:09.054Z,97131.28
2022-12-06T22:58:36.074Z,97136.22
2022-12-06T23:01:18.720Z,97134.16
2022-12-06T23:03:46.998Z,97096.97
2022-12-06T23:06:15.196Z,97120.00
2022-12-06T23:08:42.933Z,97109.38
2022-12-06T23:11:19.267Z,97109.50
2022-12-06T23:13:46.821Z,97107.47
2022-12-06T23:16:16.399Z,97126.72
2022-12-06T23:18:44.039Z,97122.97
2022-12-06T23:21:20.022Z,97117.16
2022-12-06T23:23:49.634Z,97122.03
2022-12-06T23:26:21.629Z,97127.06
2022-12-06T23:28:48.837Z,97122.19
2022-12-06T23:31:27.126Z,97125.31
2022-12-06T23:33:57.574Z,97128.50
2022-12-06T23:36:26.956Z,97126.72
2022-12-06T23:38:54.447Z,97123.19
2022-12-06T23:41:24.160Z,97113.81
2022-12-06T23:43:51.574Z,97122.28
2022-12-06T23:46:22.652Z,97115.47
2022-12-06T23:48:53.539Z,97126.59
2022-12-06T23:51:22.769Z,97124.91
2022-12-06T23:53:52.334Z,97124.84
2022-12-06T23:56:21.192Z,97122.88
2022-12-06T23:58:50.573Z,97121.56
